createdAt,value
2018-01-17T00:00:47.833Z,94288.90
2018-01-17T00:03:16.046Z,94285.10
2018-01-17T00:05:43.624Z,94282.45
2018-01-17T00:08:11.350Z,94266.50
2018-01-17T00:10:38.955Z,94275.30
2018-01-17T00:13:06.681Z,94266.05
2018-01-17T00:15:34.377Z,94262.71
2018-01-17T00:18:02.211Z,94254.11
2018-01-17T00:20:29.746Z,94250.65
2018-01-17T00:22:57.295Z,94237.22
2018-01-17T00:25:25.842Z,94231.48
2018-01-17T00:27:53.405Z,94232.44
2018-01-17T00:30:20.959Z,94225.74
2018-01-17T00:32:48.565Z,94222.17
2018-01-17T00:35:16.132Z,94228.81
2018-01-17T00:37:43.667Z,94216.66
2018-01-17T00:40:11.256Z,94212.11
2018-01-17T00:42:38.801Z,94215.44
2018-01-17T00:45:06.658Z,94196.45
2018-01-17T00:47:34.275Z,94220.78
2018-01-17T00:50:01.823Z,94231.91
2018-01-17T00:52:29.421Z,94233.96
2018-01-17T00:54:56.997Z,94234.77
2018-01-17T00:57:25.072Z,94240.64
2018-01-17T00:59:52.615Z,94231.22
2018-01-17T01:02:20.230Z,94238.85
2018-01-17T01:04:48.031Z,94238.23
2018-01-17T01:07:15.609Z,94235.87
2018-01-17T01:09:43.152Z,94239.09
2018-01-17T01:12:10.989Z,94233.75
2018-01-17T01:14:38.539Z,94244.10
2018-01-17T01:17:06.224Z,94245.93
2018-01-17T01:19:33.809Z,94240.88
2018-01-17T01:22:01.361Z,94247.19
2018-01-17T01:24:28.954Z,94235.66
2018-01-17T01:26:56.516Z,94243.64
2018-01-17T01:29:24.556Z,94234.06
2018-01-17T01:31:52.149Z,94240.20
2018-01-17T01:36:53.590Z,94245.78
2018-01-17T01:39:21.690Z,94238.25
2018-01-17T01:41:49.255Z,94251.28
2018-01-17T01:44:16.799Z,94251.00
2018-01-17T01:46:47.157Z,94241.71
2018-01-17T01:49:14.716Z,94247.62
2018-01-17T01:51:42.270Z,94252.67
2018-01-17T01:54:09.936Z,94232.00
2018-01-17T01:56:37.598Z,94219.66
2018-01-17T01:59:05.149Z,94224.87
2018-01-17T02:01:32.783Z,94216.63
2018-01-17T02:04:00.547Z,94231.09
2018-01-17T02:06:28.191Z,94228.31
2018-01-17T02:08:55.776Z,94226.81
2018-01-17T02:11:23.355Z,94239.75
2018-01-17T02:13:51.833Z,94234.25
2018-01-17T02:16:19.616Z,94226.59
2018-01-17T02:18:47.202Z,94220.80
2018-01-17T02:21:14.748Z,94206.52
2018-01-17T02:23:42.481Z,94205.38
2018-01-17T02:26:10.246Z,94197.80
2018-01-17T02:28:37.820Z,94196.86
2018-01-17T02:33:58.890Z,94192.21
2018-01-17T02:36:26.439Z,94192.45
2018-01-17T02:38:54.000Z,94195.61
2018-01-17T02:41:21.666Z,94193.13
2018-01-17T02:43:49.353Z,94194.28
2018-01-17T02:46:16.856Z,94199.28
2018-01-17T02:48:44.423Z,94196.62
2018-01-17T02:51:12.570Z,94192.44
2018-01-17T02:53:40.124Z,94194.28
2018-01-17T02:56:07.772Z,94198.77
2018-01-17T02:58:35.748Z,94172.88
2018-01-17T03:01:05.305Z,94166.84
2018-01-17T03:03:32.927Z,94157.31
2018-01-17T03:06:00.516Z,94142.13
2018-01-17T03:08:28.081Z,94154.05
2018-01-17T03:10:56.599Z,94183.03
2018-01-17T03:13:25.541Z,94190.85
2018-01-17T03:15:53.263Z,94197.22
2018-01-17T03:18:20.878Z,94203.23
2018-01-17T03:20:48.510Z,94186.30
2018-01-17T03:23:16.093Z,94172.70
2018-01-17T03:25:43.668Z,94168.17
2018-01-17T03:28:11.217Z,94151.88
2018-01-17T03:30:40.170Z,94155.91
2018-01-17T03:33:09.319Z,94170.77
2018-01-17T03:35:37.270Z,94172.60
2018-01-17T03:38:06.408Z,94180.47
2018-01-17T03:40:34.247Z,94187.00
2018-01-17T03:43:04.338Z,94188.27
2018-01-17T03:45:31.932Z,94196.34
2018-01-17T03:47:59.583Z,94204.05
2018-01-17T03:50:27.302Z,94201.52
2018-01-17T03:52:54.923Z,94197.41
2018-01-17T03:55:22.522Z,94193.41
2018-01-17T03:57:50.096Z,94191.24
2018-01-17T04:00:17.624Z,94190.34
2018-01-17T04:02:45.227Z,94189.28
2018-01-17T04:05:12.937Z,94174.66
2018-01-17T04:07:40.505Z,94164.75
2018-01-17T04:10:08.062Z,94165.89
2018-01-17T04:12:35.608Z,94133.23
2018-01-17T04:15:03.191Z,94086.61
2018-01-17T04:17:30.906Z,94136.95
2018-01-17T04:19:58.467Z,94171.04
2018-01-17T04:22:26.093Z,94175.75
2018-01-17T04:24:53.686Z,94183.90
2018-01-17T04:27:21.249Z,94186.94
2018-01-17T04:29:48.798Z,94171.16
2018-01-17T04:32:16.384Z,94164.05
2018-01-17T04:34:43.932Z,94174.44
2018-01-17T04:37:12.182Z,94166.02
2018-01-17T04:39:39.752Z,94161.70
2018-01-17T04:42:07.297Z,94165.02
2018-01-17T04:44:34.878Z,94170.98
2018-01-17T04:49:34.142Z,94176.14
2018-01-17T04:52:01.709Z,94174.13
2018-01-17T04:54:29.300Z,94162.61
2018-01-17T04:56:56.857Z,94163.02
2018-01-17T04:59:24.428Z,94156.47
2018-01-17T05:01:52.245Z,94143.84
2018-01-17T05:04:20.359Z,94154.45
2018-01-17T05:06:47.909Z,94160.71
2018-01-17T05:09:15.830Z,94154.30
2018-01-17T05:11:43.393Z,94144.56
2018-01-17T05:14:11.008Z,94147.45
2018-01-17T05:16:38.584Z,94142.77
2018-01-17T05:19:06.437Z,94139.09
2018-01-17T05:21:34.022Z,94131.07
2018-01-17T05:24:01.617Z,94124.63
2018-01-17T05:26:29.160Z,94126.80
2018-01-17T05:28:56.709Z,94142.77
2018-01-17T05:31:24.395Z,94132.66
2018-01-17T05:33:52.055Z,94137.25
2018-01-17T05:36:19.597Z,94145.00
2018-01-17T05:38:47.182Z,94139.79
2018-01-17T05:41:14.752Z,94133.35
2018-01-17T05:43:42.336Z,94128.08
2018-01-17T05:46:09.921Z,94122.98
2018-01-17T05:48:37.466Z,94121.98
2018-01-17T05:51:05.060Z,94117.22
2018-01-17T05:53:32.621Z,94116.54
2018-01-17T05:56:00.154Z,94102.16
2018-01-17T05:58:27.688Z,94106.80
2018-01-17T06:00:55.309Z,94121.72
2018-01-17T06:03:22.954Z,94116.42
2018-01-17T06:05:50.601Z,94120.73
2018-01-17T06:08:18.190Z,94110.80
2018-01-17T06:10:45.759Z,94098.88
2018-01-17T06:13:13.347Z,94083.80
2018-01-17T06:15:40.903Z,94076.87
2018-01-17T06:18:08.519Z,94079.39
2018-01-17T06:20:36.136Z,94073.81
2018-01-17T06:23:03.779Z,94072.52
2018-01-17T06:25:31.554Z,94076.46
2018-01-17T06:27:59.203Z,94075.77
2018-01-17T06:30:26.817Z,94083.44
2018-01-17T06:32:54.376Z,94081.72
2018-01-17T06:35:21.912Z,94078.51
2018-01-17T06:37:49.485Z,94082.38
2018-01-17T06:40:17.028Z,94081.16
2018-01-17T06:42:44.584Z,94087.91
2018-01-17T06:45:12.188Z,94074.44
2018-01-17T06:47:39.773Z,94082.79
2018-01-17T06:50:07.331Z,94083.39
2018-01-17T06:52:34.931Z,94083.80
2018-01-17T06:55:02.479Z,94089.86
2018-01-17T06:57:30.916Z,94087.01
2018-01-17T06:59:58.500Z,94089.70
2018-01-17T07:02:26.058Z,94091.45
2018-01-17T07:04:54.005Z,94093.58
2018-01-17T07:07:21.621Z,94087.95
2018-01-17T07:09:49.343Z,94097.41
2018-01-17T07:12:19.583Z,94103.72
2018-01-17T07:14:47.516Z,94111.13
2018-01-17T07:17:17.184Z,94105.10
2018-01-17T07:19:44.724Z,94108.72
2018-01-17T07:22:12.399Z,94112.80
2018-01-17T07:24:39.966Z,94103.15
2018-01-17T07:27:07.730Z,94080.75
2018-01-17T07:29:35.377Z,94119.32
2018-01-17T07:32:04.194Z,94126.80
2018-01-17T07:34:31.873Z,94113.41
2018-01-17T07:37:00.051Z,94110.89
2018-01-17T07:39:27.672Z,94105.88
2018-01-17T07:41:55.217Z,94115.25
2018-01-17T07:44:22.794Z,94108.85
2018-01-17T07:46:50.333Z,94103.76
2018-01-17T07:49:17.914Z,94116.91
2018-01-17T07:51:47.463Z,94115.08
2018-01-17T07:54:15.061Z,94115.20
2018-01-17T07:56:42.966Z,94119.80
2018-01-17T07:59:10.572Z,94126.49
2018-01-17T08:01:38.143Z,94125.11
2018-01-17T08:04:05.701Z,94127.17
2018-01-17T08:06:33.271Z,94137.20
2018-01-17T08:09:00.841Z,94133.13
2018-01-17T08:11:28.380Z,94148.44
2018-01-17T08:13:55.965Z,94136.30
2018-01-17T08:16:23.907Z,94143.19
2018-01-17T08:18:51.467Z,94157.00
2018-01-17T08:21:19.114Z,94153.66
2018-01-17T08:23:46.668Z,94156.79
2018-01-17T08:26:14.242Z,94162.55
2018-01-17T08:28:41.920Z,94156.14
2018-01-17T08:31:10.809Z,94165.03
2018-01-17T08:33:38.473Z,94162.34
2018-01-17T08:36:06.186Z,94137.12
2018-01-17T08:38:33.750Z,94163.23
2018-01-17T08:41:01.347Z,94160.38
2018-01-17T08:43:28.919Z,94159.16
2018-01-17T08:45:56.472Z,94168.66
2018-01-17T08:48:24.511Z,94176.23
2018-01-17T08:50:52.095Z,94180.43
2018-01-17T08:53:19.640Z,94191.39
2018-01-17T08:55:47.215Z,94195.42
2018-01-17T08:58:15.239Z,94201.07
2018-01-17T09:00:42.784Z,94193.93
2018-01-17T09:03:11.580Z,94196.39
2018-01-17T09:05:39.592Z,94205.52
2018-01-17T09:08:07.345Z,94200.16
2018-01-17T09:10:34.902Z,94194.44
2018-01-17T09:13:02.500Z,94193.75
2018-01-17T09:15:30.091Z,94191.77
2018-01-17T09:17:57.635Z,94190.80
2018-01-17T09:20:25.229Z,94176.27
2018-01-17T09:22:52.797Z,94170.42
2018-01-17T09:25:20.530Z,94161.84
2018-01-17T09:27:48.142Z,94177.05
2018-01-17T09:30:16.064Z,94178.88
2018-01-17T09:32:43.610Z,94191.70
2018-01-17T09:35:12.206Z,94194.97
2018-01-17T09:37:39.775Z,94204.16
2018-01-17T09:40:07.349Z,94213.64
2018-01-17T09:42:34.923Z,94222.42
2018-01-17T09:45:02.563Z,94228.82
2018-01-17T09:47:30.116Z,94233.78
2018-01-17T09:49:57.750Z,94241.17
2018-01-17T09:52:25.892Z,94247.93
2018-01-17T09:54:53.448Z,94253.70
2018-01-17T09:57:21.050Z,94256.22
2018-01-17T09:59:48.589Z,94248.41
2018-01-17T10:02:16.276Z,94259.20
2018-01-17T10:04:43.884Z,94282.13
2018-01-17T10:07:12.122Z,94274.63
2018-01-17T10:09:39.681Z,94280.75
2018-01-17T10:12:07.250Z,94275.38
2018-01-17T10:14:34.812Z,94286.05
2018-01-17T10:17:02.350Z,94293.34
2018-01-17T10:19:29.926Z,94301.45
2018-01-17T10:21:57.517Z,94300.19
2018-01-17T10:24:25.893Z,94310.06
2018-01-17T10:26:53.458Z,94302.20
2018-01-17T10:29:21.014Z,94307.46
2018-01-17T10:31:48.611Z,94322.79
2018-01-17T10:34:16.252Z,94317.70
2018-01-17T10:36:43.792Z,94322.24
2018-01-17T10:39:11.482Z,94312.08
2018-01-17T10:41:39.034Z,94322.86
2018-01-17T10:44:06.587Z,94316.92
2018-01-17T10:46:34.166Z,94328.22
2018-01-17T10:49:01.714Z,94332.06
2018-01-17T10:51:29.263Z,94339.36
2018-01-17T10:53:56.866Z,94326.80
2018-01-17T10:56:24.446Z,94333.62
2018-01-17T10:58:51.988Z,94333.88
2018-01-17T11:01:19.590Z,94328.58
2018-01-17T11:03:47.570Z,94338.25
2018-01-17T11:06:15.170Z,94341.09
2018-01-17T11:08:42.790Z,94341.06
2018-01-17T11:11:10.662Z,94343.12
2018-01-17T11:13:38.336Z,94345.58
2018-01-17T11:16:06.469Z,94328.36
2018-01-17T11:18:35.459Z,94341.44
2018-01-17T11:21:03.205Z,94352.89
2018-01-17T11:23:30.758Z,94350.30
2018-01-17T11:25:59.119Z,94361.31
2018-01-17T11:28:26.882Z,94361.78
2018-01-17T11:30:54.490Z,94361.30
2018-01-17T11:33:22.049Z,94371.17
2018-01-17T11:35:49.593Z,94373.09
2018-01-17T11:38:17.133Z,94389.23
2018-01-17T11:40:44.735Z,94384.85
2018-01-17T11:43:12.774Z,94382.15
2018-01-17T11:45:40.417Z,94389.88
2018-01-17T11:48:11.869Z,94376.13
2018-01-17T11:50:40.196Z,94379.23
2018-01-17T11:53:08.075Z,94392.56
2018-01-17T11:58:19.368Z,94386.55
2018-01-17T12:00:47.013Z,94369.09
2018-01-17T12:03:14.573Z,94377.95
2018-01-17T12:08:13.920Z,94390.13
2018-01-17T12:10:41.534Z,94374.02
2018-01-17T12:13:09.987Z,94379.27
2018-01-17T12:15:39.413Z,94377.41
2018-01-17T12:18:11.996Z,94364.09
2018-01-17T12:20:39.630Z,94365.48
2018-01-17T12:23:07.242Z,94380.06
2018-01-17T12:25:35.372Z,94383.45
2018-01-17T12:28:02.983Z,94369.59
2018-01-17T12:30:32.584Z,94370.14
2018-01-17T12:33:00.297Z,94367.30
2018-01-17T12:35:27.927Z,94362.38
2018-01-17T12:37:55.510Z,94361.67
2018-01-17T12:40:23.250Z,94367.48
2018-01-17T12:42:50.888Z,94365.45
2018-01-17T12:45:19.385Z,94376.95
2018-01-17T12:47:47.056Z,94378.78
2018-01-17T12:50:14.658Z,94387.13
2018-01-17T12:52:42.222Z,94385.91
2018-01-17T12:55:11.150Z,94390.92
2018-01-17T12:57:38.710Z,94389.39
2018-01-17T13:00:06.482Z,94379.78
2018-01-17T13:02:34.080Z,94411.39
2018-01-17T13:05:01.695Z,94406.03
2018-01-17T13:07:30.355Z,94424.02
2018-01-17T13:09:57.950Z,94423.44
2018-01-17T13:12:25.504Z,94433.78
2018-01-17T13:17:43.939Z,94457.81
2018-01-17T13:20:11.756Z,94449.05
2018-01-17T13:22:39.308Z,94464.98
2018-01-17T13:25:07.033Z,94471.28
2018-01-17T13:27:34.619Z,94463.38
2018-01-17T13:30:02.163Z,94480.72
2018-01-17T13:32:29.738Z,94490.16
2018-01-17T13:34:57.368Z,94507.13
2018-01-17T13:37:25.021Z,94499.95
2018-01-17T13:39:52.614Z,94496.17
2018-01-17T13:42:20.259Z,94493.16
2018-01-17T13:44:47.856Z,94505.60
2018-01-17T13:47:15.705Z,94518.08
2018-01-17T13:49:43.241Z,94506.67
2018-01-17T13:52:10.856Z,94529.30
2018-01-17T13:54:38.465Z,94528.92
2018-01-17T13:57:06.339Z,94528.92
2018-01-17T13:59:34.037Z,94544.30
2018-01-17T14:02:01.640Z,94564.09
2018-01-17T14:04:29.205Z,94560.23
2018-01-17T14:06:56.861Z,94557.00
2018-01-17T14:09:24.634Z,94557.33
2018-01-17T14:11:52.189Z,94563.30
2018-01-17T14:14:19.834Z,94563.38
2018-01-17T14:16:47.392Z,94583.19
2018-01-17T14:19:15.020Z,94588.45
2018-01-17T14:21:42.764Z,94586.48
2018-01-17T14:24:10.396Z,94594.66
2018-01-17T14:26:37.960Z,94607.09
2018-01-17T14:29:05.662Z,94611.87
2018-01-17T14:31:33.193Z,94612.54
2018-01-17T14:34:00.769Z,94612.75
2018-01-17T14:36:28.315Z,94615.64
2018-01-17T14:38:55.900Z,94614.14
2018-01-17T14:41:23.514Z,94627.16
2018-01-17T14:43:51.097Z,94625.86
2018-01-17T14:46:18.648Z,94630.50
2018-01-17T14:48:46.317Z,94654.77
2018-01-17T14:51:13.871Z,94654.33
2018-01-17T14:53:41.417Z,94650.23
2018-01-17T14:56:09.070Z,94657.87
2018-01-17T14:58:36.641Z,94665.63
2018-01-17T15:01:04.212Z,94668.91
2018-01-17T15:03:32.038Z,94675.31
2018-01-17T15:05:59.657Z,94679.22
2018-01-17T15:08:27.212Z,94683.26
2018-01-17T15:10:54.808Z,94686.38
2018-01-17T15:13:22.712Z,94688.45
2018-01-17T15:15:50.289Z,94700.26
2018-01-17T15:18:17.902Z,94703.02
2018-01-17T15:20:46.012Z,94725.25
2018-01-17T15:23:13.773Z,94728.08
2018-01-17T15:25:41.394Z,94743.56
2018-01-17T15:28:09.037Z,94735.79
2018-01-17T15:30:36.633Z,94739.36
2018-01-17T15:33:04.252Z,94733.98
2018-01-17T15:35:31.865Z,94739.33
2018-01-17T15:38:00.521Z,94748.31
2018-01-17T15:40:28.136Z,94744.61
2018-01-17T15:42:55.727Z,94728.97
2018-01-17T15:45:23.553Z,94755.03
2018-01-17T15:47:51.117Z,94751.78
2018-01-17T15:50:18.679Z,94757.05
2018-01-17T15:52:46.312Z,94747.39
2018-01-17T15:55:14.880Z,94753.62
2018-01-17T15:57:42.631Z,94774.21
2018-01-17T16:00:14.216Z,94774.80
2018-01-17T16:02:42.052Z,94779.13
2018-01-17T16:05:10.020Z,94783.00
2018-01-17T16:07:37.970Z,94790.34
2018-01-17T16:10:05.552Z,94786.19
2018-01-17T16:12:33.104Z,94790.67
2018-01-17T16:15:00.709Z,94782.08
2018-01-17T16:17:28.454Z,94781.07
2018-01-17T16:19:56.042Z,94788.16
2018-01-17T16:22:23.841Z,94794.45
2018-01-17T16:24:52.563Z,94807.78
2018-01-17T16:27:20.163Z,94819.28
2018-01-17T16:29:47.817Z,94816.46
2018-01-17T16:32:15.394Z,94831.67
2018-01-17T16:34:43.052Z,94822.72
2018-01-17T16:37:10.978Z,94837.77
2018-01-17T16:39:38.703Z,94843.70
2018-01-17T16:42:06.276Z,94834.99
2018-01-17T16:44:34.318Z,94838.94
2018-01-17T16:47:01.919Z,94846.98
2018-01-17T16:49:29.486Z,94851.61
2018-01-17T16:51:57.105Z,94854.23
2018-01-17T16:54:24.707Z,94849.69
2018-01-17T16:56:52.284Z,94855.30
2018-01-17T16:59:19.886Z,94861.27
2018-01-17T17:01:47.830Z,94873.39
2018-01-17T17:04:15.825Z,94871.34
2018-01-17T17:06:43.419Z,94880.83
2018-01-17T17:09:11.479Z,94887.79
2018-01-17T17:11:39.059Z,94881.17
2018-01-17T17:14:06.654Z,94895.42
2018-01-17T17:16:34.269Z,94893.45
2018-01-17T17:19:01.859Z,94897.84
2018-01-17T17:21:29.416Z,94909.32
2018-01-17T17:23:57.106Z,94909.10
2018-01-17T17:26:24.676Z,94904.97
2018-01-17T17:28:52.248Z,94911.69
2018-01-17T17:31:19.868Z,94907.94
2018-01-17T17:33:47.439Z,94908.34
2018-01-17T17:36:15.198Z,94909.89
2018-01-17T17:38:42.817Z,94909.07
2018-01-17T17:41:11.527Z,94916.69
2018-01-17T17:43:39.101Z,94918.48
2018-01-17T17:46:06.695Z,94919.30
2018-01-17T17:48:34.303Z,94920.05
2018-01-17T17:51:01.918Z,94927.20
2018-01-17T17:53:29.545Z,94917.80
2018-01-17T17:55:57.346Z,94920.73
2018-01-17T17:58:25.090Z,94929.46
2018-01-17T18:00:52.679Z,94931.13
2018-01-17T18:03:20.265Z,94924.55
2018-01-17T18:05:47.823Z,94933.06
2018-01-17T18:08:15.360Z,94947.87
2018-01-17T18:10:42.990Z,94933.97
2018-01-17T18:13:11.015Z,94939.77
2018-01-17T18:15:38.705Z,94950.45
2018-01-17T18:18:06.413Z,94924.63
2018-01-17T18:20:34.640Z,94950.80
2018-01-17T18:23:02.768Z,94950.30
2018-01-17T18:25:35.249Z,94956.88
2018-01-17T18:28:02.862Z,94958.68
2018-01-17T18:30:30.839Z,94962.75
2018-01-17T18:32:58.443Z,94960.38
2018-01-17T18:35:26.040Z,94958.45
2018-01-17T18:37:56.522Z,94979.31
2018-01-17T18:40:24.152Z,94978.36
2018-01-17T18:42:51.701Z,94980.26
2018-01-17T18:45:19.276Z,94983.25
2018-01-17T18:47:46.900Z,94984.48
2018-01-17T18:50:14.450Z,94987.55
2018-01-17T18:52:42.020Z,94986.92
2018-01-17T18:55:10.099Z,94996.40
2018-01-17T18:57:37.745Z,94996.08
2018-01-17T19:00:05.533Z,94983.06
2018-01-17T19:02:33.192Z,94998.52
2018-01-17T19:05:01.149Z,95001.52
2018-01-17T19:07:28.704Z,94998.14
2018-01-17T19:09:56.318Z,94997.84
2018-01-17T19:12:23.942Z,95004.73
2018-01-17T19:14:51.513Z,95012.91
2018-01-17T19:17:19.152Z,95011.59
2018-01-17T19:19:46.710Z,95014.56
2018-01-17T19:22:14.257Z,95007.86
2018-01-17T19:27:34.274Z,95018.52
2018-01-17T19:30:01.881Z,95017.93
2018-01-17T19:32:29.462Z,95029.16
2018-01-17T19:34:57.026Z,95030.65
2018-01-17T19:37:26.108Z,95043.62
2018-01-17T19:39:54.811Z,95037.06
2018-01-17T19:42:22.398Z,95032.91
2018-01-17T19:45:09.035Z,95039.96
2018-01-17T19:47:36.648Z,95032.23
2018-01-17T19:50:04.207Z,95029.53
2018-01-17T19:52:31.795Z,95034.33
2018-01-17T19:54:59.358Z,95027.35
2018-01-17T19:57:26.905Z,95024.95
2018-01-17T19:59:54.500Z,95035.64
2018-01-17T20:02:22.292Z,95044.49
2018-01-17T20:04:49.871Z,95047.22
2018-01-17T20:07:17.463Z,95053.20
2018-01-17T20:09:45.025Z,95057.27
2018-01-17T20:12:12.699Z,95064.19
2018-01-17T20:14:40.260Z,95060.20
2018-01-17T20:17:07.944Z,95060.99
2018-01-17T20:19:35.581Z,95061.08
2018-01-17T20:22:03.189Z,95062.11
2018-01-17T20:24:30.764Z,95063.37
2018-01-17T20:26:58.433Z,95068.88
2018-01-17T20:29:26.181Z,95070.11
2018-01-17T20:31:54.001Z,95080.16
2018-01-17T20:34:21.566Z,95084.25
2018-01-17T20:36:49.126Z,95082.06
2018-01-17T20:39:22.333Z,95089.06
2018-01-17T20:41:49.973Z,95088.45
2018-01-17T20:44:17.542Z,95083.98
2018-01-17T20:46:45.136Z,95090.29
2018-01-17T20:49:12.826Z,95088.38
2018-01-17T20:51:40.407Z,95094.72
2018-01-17T20:54:08.304Z,95076.52
2018-01-17T20:56:35.878Z,95080.15
2018-01-17T20:59:03.496Z,95077.59
2018-01-17T21:01:31.108Z,95075.81
2018-01-17T21:03:58.676Z,95080.38
2018-01-17T21:06:26.256Z,95081.95
2018-01-17T21:08:54.097Z,95088.41
2018-01-17T21:11:22.065Z,95093.16
2018-01-17T21:13:49.642Z,95082.03
2018-01-17T21:16:17.577Z,95086.16
2018-01-17T21:18:45.149Z,95089.25
2018-01-17T21:21:12.864Z,95092.00
2018-01-17T21:23:40.792Z,95094.13
2018-01-17T21:26:08.360Z,95100.35
2018-01-17T21:28:36.010Z,95096.09
2018-01-17T21:31:03.629Z,95099.51
2018-01-17T21:33:31.945Z,95096.31
2018-01-17T21:35:59.560Z,95089.72
2018-01-17T21:38:27.131Z,95090.00
2018-01-17T21:40:54.676Z,95086.97
2018-01-17T21:43:28.339Z,95087.51
2018-01-17T21:45:55.883Z,95092.02
2018-01-17T21:48:23.463Z,95102.73
2018-01-17T21:50:51.116Z,95100.84
2018-01-17T21:53:22.340Z,95115.72
2018-01-17T21:55:49.969Z,95116.56
2018-01-17T21:58:17.592Z,95122.23
2018-01-17T22:00:45.161Z,95123.20
2018-01-17T22:03:14.051Z,95123.72
2018-01-17T22:05:41.868Z,95128.32
2018-01-17T22:08:09.451Z,95127.00
2018-01-17T22:10:37.036Z,95133.14
2018-01-17T22:13:04.708Z,95128.34
2018-01-17T22:15:32.275Z,95140.94
2018-01-17T22:17:59.854Z,95152.17
2018-01-17T22:20:27.439Z,95151.00
2018-01-17T22:22:54.999Z,95159.95
2018-01-17T22:25:23.290Z,95161.21
2018-01-17T22:27:50.997Z,95171.69
2018-01-17T22:30:18.586Z,95176.81
2018-01-17T22:32:46.178Z,95178.43
2018-01-17T22:35:13.771Z,95194.00
2018-01-17T22:37:41.321Z,95198.22
2018-01-17T22:40:09.055Z,95197.11
2018-01-17T22:42:36.711Z,95211.33
2018-01-17T22:45:04.726Z,95202.70
2018-01-17T22:47:32.476Z,95205.31
2018-01-17T22:50:00.058Z,95211.92
2018-01-17T22:52:27.611Z,95215.82
2018-01-17T22:54:55.172Z,95219.63
2018-01-17T22:57:22.799Z,95217.62
2018-01-17T22:59:50.552Z,95230.89
2018-01-17T23:02:21.027Z,95230.66
2018-01-17T23:04:48.881Z,95230.48
2018-01-17T23:07:16.588Z,95242.12
2018-01-17T23:09:44.176Z,95239.10
2018-01-17T23:15:01.731Z,95250.90
2018-01-17T23:17:29.302Z,95258.70
2018-01-17T23:19:56.887Z,95247.81
2018-01-17T23:22:24.512Z,95244.73
2018-01-17T23:24:52.059Z,95244.50
2018-01-17T23:27:20.739Z,95267.97
2018-01-17T23:29:48.319Z,95265.68
2018-01-17T23:32:15.869Z,95268.55
2018-01-17T23:34:43.441Z,95275.07
2018-01-17T23:37:12.823Z,95283.00
2018-01-17T23:39:40.516Z,95292.19
2018-01-17T23:42:08.091Z,95290.92
2018-01-17T23:44:35.697Z,95302.25
2018-01-17T23:47:04.663Z,95305.42
2018-01-17T23:49:33.121Z,95307.67
2018-01-17T23:52:00.772Z,95307.15
2018-01-17T23:54:28.343Z,95311.78
2018-01-17T23:56:58.016Z,95300.25
2018-01-17T23:59:25.613Z,95311.05
